createdAt,value
2023-01-26T00:02:55.959Z,0.79
2023-01-26T00:07:58.912Z,0.78
2023-01-26T00:13:01.960Z,0.75
2023-01-26T00:18:04.921Z,0.80
2023-01-26T00:23:07.926Z,0.79
2023-01-26T00:28:10.961Z,0.78
2023-01-26T00:33:13.929Z,0.81
2023-01-26T00:38:16.804Z,0.78
2023-01-26T00:43:19.842Z,0.79
2023-01-26T00:48:24.638Z,0.78
2023-01-26T00:53:28.005Z,0.77
2023-01-26T00:58:31.074Z,0.76
2023-01-26T01:03:33.920Z,0.74
2023-01-26T01:08:37.390Z,0.73
2023-01-26T01:13:40.507Z,0.69
2023-01-26T01:18:44.671Z,0.67
2023-01-26T01:23:47.913Z,0.64
2023-01-26T01:29:00.487Z,0.62
2023-01-26T01:34:03.393Z,0.59
2023-01-26T01:39:06.520Z,0.61
2023-01-26T01:44:27.624Z,0.61
2023-01-26T01:49:49.595Z,0.61
2023-01-26T01:55:08.782Z,0.62
2023-01-26T02:00:18.665Z,0.64
2023-01-26T02:05:31.408Z,0.65
2023-01-26T02:10:34.349Z,0.66
2023-01-26T02:15:38.056Z,0.66
2023-01-26T02:20:47.830Z,0.63
2023-01-26T02:25:52.812Z,0.64
2023-01-26T02:30:56.992Z,0.59
2023-01-26T02:36:02.784Z,0.63
2023-01-26T02:41:12.802Z,0.62
2023-01-26T02:46:15.990Z,0.59
2023-01-26T02:51:18.880Z,0.61
2023-01-26T02:56:21.797Z,0.62
2023-01-26T03:01:24.811Z,0.60
2023-01-26T03:06:27.893Z,0.62
2023-01-26T03:11:42.071Z,0.57
2023-01-26T03:16:45.225Z,0.59
2023-01-26T03:22:06.348Z,0.58
2023-01-26T03:27:28.550Z,0.55
2023-01-26T03:32:31.513Z,0.52
2023-01-26T03:37:37.084Z,0.51
2023-01-26T03:42:58.796Z,0.51
2023-01-26T03:48:31.758Z,0.48
2023-01-26T03:53:53.117Z,0.46
2023-01-26T03:59:08.435Z,0.45
2023-01-26T04:04:30.376Z,0.47
2023-01-26T04:09:34.083Z,0.48
2023-01-26T04:14:55.373Z,0.47
2023-01-26T04:20:18.175Z,0.47
2023-01-26T04:25:22.193Z,0.47
2023-01-26T04:30:25.224Z,0.46
2023-01-26T04:35:28.178Z,0.46
2023-01-26T04:40:31.081Z,0.47
2023-01-26T04:45:33.841Z,0.47
2023-01-26T04:50:36.817Z,0.45
2023-01-26T04:55:39.803Z,0.44
2023-01-26T05:00:42.900Z,0.43
2023-01-26T05:05:50.782Z,0.46
2023-01-26T05:10:53.741Z,0.45
2023-01-26T05:15:57.111Z,0.45
2023-01-26T05:21:00.120Z,0.43
2023-01-26T05:26:04.008Z,0.42
2023-01-26T05:31:07.155Z,0.42
2023-01-26T05:36:10.464Z,0.42
2023-01-26T05:41:13.414Z,0.41
2023-01-26T05:46:16.364Z,0.36
2023-01-26T05:51:19.450Z,0.35
2023-01-26T05:56:22.377Z,0.35
2023-01-26T06:01:25.404Z,0.32
2023-01-26T06:06:28.394Z,0.31
2023-01-26T06:11:33.279Z,0.30
2023-01-26T06:16:36.370Z,0.29
2023-01-26T06:21:39.292Z,0.24
2023-01-26T06:26:42.223Z,0.20
2023-01-26T06:31:45.463Z,0.18
2023-01-26T06:36:48.429Z,0.18
2023-01-26T06:41:51.186Z,0.19
2023-01-26T06:46:54.273Z,0.21
2023-01-26T06:52:27.791Z,0.19
2023-01-26T06:57:30.926Z,0.21
2023-01-26T07:02:34.057Z,0.20
2023-01-26T07:07:37.283Z,0.20
2023-01-26T07:12:46.165Z,0.20
2023-01-26T07:17:49.685Z,0.22
2023-01-26T07:22:52.769Z,0.26
2023-01-26T07:27:59.586Z,0.26
2023-01-26T07:33:02.949Z,0.30
2023-01-26T07:38:06.365Z,0.33
2023-01-26T07:43:09.288Z,0.36
2023-01-26T07:48:12.606Z,0.37
2023-01-26T07:53:19.481Z,0.41
2023-01-26T07:58:22.600Z,0.47
2023-01-26T08:03:25.464Z,0.51
2023-01-26T08:08:56.588Z,0.58
2023-01-26T08:13:59.548Z,0.64
2023-01-26T08:19:03.082Z,0.69
2023-01-26T08:24:06.541Z,0.73
2023-01-26T08:29:09.733Z,0.76
2023-01-26T08:34:13.072Z,0.82
2023-01-26T08:39:16.052Z,0.86
2023-01-26T08:44:18.795Z,0.90
2023-01-26T08:49:21.770Z,0.94
2023-01-26T08:54:24.879Z,0.96
2023-01-26T08:59:27.746Z,1.00
2023-01-26T09:04:30.669Z,1.06
2023-01-26T09:09:33.871Z,1.13
2023-01-26T09:14:36.855Z,1.19
2023-01-26T09:19:40.301Z,1.29
2023-01-26T09:24:43.543Z,1.34
2023-01-26T09:29:46.440Z,1.41
2023-01-26T09:34:49.416Z,1.44
2023-01-26T09:39:52.454Z,1.50
2023-01-26T09:45:13.699Z,1.54
2023-01-26T09:50:24.439Z,1.56
2023-01-26T09:55:29.071Z,1.59
2023-01-26T10:00:44.594Z,1.54
2023-01-26T10:06:27.888Z,1.47
2023-01-26T10:11:43.214Z,1.47
2023-01-26T10:16:51.690Z,1.41
2023-01-26T10:21:59.667Z,1.40
2023-01-26T10:27:02.772Z,1.41
2023-01-26T10:32:05.894Z,1.41
2023-01-26T10:37:29.773Z,1.41
2023-01-26T10:42:35.153Z,1.45
2023-01-26T10:47:38.412Z,1.45
2023-01-26T10:53:02.543Z,1.45
2023-01-26T10:58:05.699Z,1.43
2023-01-26T11:03:19.325Z,1.43
2023-01-26T11:08:37.856Z,1.43
2023-01-26T11:13:40.727Z,1.42
2023-01-26T11:19:03.319Z,1.44
2023-01-26T11:24:42.536Z,1.40
2023-01-26T11:30:07.449Z,1.33
2023-01-26T11:35:15.355Z,1.32
2023-01-26T11:40:40.993Z,1.32
2023-01-26T11:46:15.244Z,1.24
2023-01-26T11:52:06.014Z,1.22
2023-01-26T11:57:08.700Z,1.18
2023-01-26T12:02:27.573Z,1.16
2023-01-26T12:07:55.368Z,1.13
2023-01-26T12:13:10.186Z,1.09
2023-01-26T12:18:29.903Z,1.07
2023-01-26T12:23:57.998Z,1.07
2023-01-26T12:29:20.705Z,1.06
2023-01-26T12:34:29.641Z,1.05
2023-01-26T12:39:45.776Z,1.06
2023-01-26T12:45:02.163Z,1.09
2023-01-26T12:50:30.611Z,1.07
2023-01-26T12:55:49.695Z,1.09
2023-01-26T13:01:09.895Z,1.14
2023-01-26T13:06:12.814Z,1.12
2023-01-26T13:11:48.801Z,1.11
2023-01-26T13:16:51.869Z,1.13
2023-01-26T13:21:54.895Z,1.12
2023-01-26T13:26:59.979Z,1.07
2023-01-26T13:32:23.124Z,1.04
2023-01-26T13:37:58.261Z,1.02
2023-01-26T13:43:32.960Z,0.96
2023-01-26T13:48:49.488Z,0.92
2023-01-26T13:54:02.990Z,0.93
2023-01-26T13:59:19.471Z,0.94
2023-01-26T14:04:26.772Z,0.97
2023-01-26T14:09:33.885Z,1.00
2023-01-26T14:14:37.917Z,1.01
2023-01-26T14:19:48.481Z,1.01
2023-01-26T14:24:53.514Z,1.03
2023-01-26T14:29:57.128Z,1.03
2023-01-26T14:35:00.967Z,1.02
2023-01-26T14:40:19.642Z,0.97
2023-01-26T14:45:31.650Z,0.96
2023-01-26T14:50:37.022Z,0.90
2023-01-26T14:55:43.699Z,0.88
2023-01-26T15:00:50.737Z,0.84
2023-01-26T15:06:18.367Z,0.82
2023-01-26T15:11:55.802Z,0.75
2023-01-26T15:16:58.984Z,0.72
2023-01-26T15:22:01.785Z,0.71
2023-01-26T15:27:06.872Z,0.68
2023-01-26T15:32:32.559Z,0.68
2023-01-26T15:37:36.185Z,0.62
2023-01-26T15:42:39.515Z,0.61
2023-01-26T15:47:42.525Z,0.58
2023-01-26T15:52:45.568Z,0.57
2023-01-26T15:57:48.642Z,0.55
2023-01-26T16:02:51.780Z,0.52
2023-01-26T16:07:54.713Z,0.49
2023-01-26T16:12:57.709Z,0.49
2023-01-26T16:18:00.490Z,0.47
2023-01-26T16:23:03.973Z,0.45
2023-01-26T16:28:06.888Z,0.42
2023-01-26T16:33:13.992Z,0.39
2023-01-26T16:38:17.084Z,0.37
2023-01-26T16:43:29.863Z,0.36
2023-01-26T16:48:35.236Z,0.34
2023-01-26T16:53:38.236Z,0.31
2023-01-26T16:58:41.758Z,0.26
2023-01-26T17:03:45.457Z,0.24
2023-01-26T17:08:49.423Z,0.22
2023-01-26T17:13:52.713Z,0.18
2023-01-26T17:18:56.753Z,0.16
2023-01-26T17:23:59.867Z,0.14
2023-01-26T17:29:03.311Z,0.12
2023-01-26T17:34:06.623Z,0.11
2023-01-26T17:39:10.985Z,0.09
2023-01-26T17:44:15.219Z,0.08
2023-01-26T17:49:21.227Z,0.06
2023-01-26T17:54:24.418Z,0.01
2023-01-26T17:59:27.397Z,-0.01
2023-01-26T18:04:31.559Z,-0.03
2023-01-26T18:09:34.508Z,-0.06
2023-01-26T18:14:37.434Z,-0.05
2023-01-26T18:19:40.527Z,-0.07
2023-01-26T18:24:43.357Z,-0.06
2023-01-26T18:29:47.575Z,-0.06
2023-01-26T18:34:50.434Z,-0.04
2023-01-26T18:39:53.181Z,-0.06
2023-01-26T18:45:01.011Z,-0.12
2023-01-26T18:50:05.397Z,-0.12
2023-01-26T18:55:10.463Z,-0.14
2023-01-26T19:00:14.172Z,-0.15
2023-01-26T19:05:17.172Z,-0.14
2023-01-26T19:10:20.128Z,-0.17
2023-01-26T19:15:22.993Z,-0.19
2023-01-26T19:20:26.214Z,-0.23
2023-01-26T19:25:29.185Z,-0.23
2023-01-26T19:30:33.352Z,-0.25
2023-01-26T19:35:38.111Z,-0.26
2023-01-26T19:40:43.483Z,-0.28
2023-01-26T19:45:53.181Z,-0.29
2023-01-26T19:51:12.912Z,-0.28
2023-01-26T19:56:23.622Z,-0.31
2023-01-26T20:01:29.029Z,-0.34
2023-01-26T20:06:35.153Z,-0.36
2023-01-26T20:11:38.164Z,-0.38
2023-01-26T20:16:41.426Z,-0.38
2023-01-26T20:21:45.472Z,-0.39
2023-01-26T20:26:48.591Z,-0.44
2023-01-26T20:31:51.686Z,-0.45
2023-01-26T20:37:00.052Z,-0.51
2023-01-26T20:42:03.186Z,-0.52
2023-01-26T20:47:06.251Z,-0.56
2023-01-26T20:52:09.628Z,-0.57
2023-01-26T20:57:12.503Z,-0.59
2023-01-26T21:02:16.589Z,-0.58
2023-01-26T21:07:19.979Z,-0.58
2023-01-26T21:12:23.005Z,-0.59
2023-01-26T21:17:26.013Z,-0.63
2023-01-26T21:22:28.917Z,-0.67
2023-01-26T21:27:31.863Z,-0.70
2023-01-26T21:32:35.273Z,-0.71
2023-01-26T21:37:38.230Z,-0.68
2023-01-26T21:42:41.080Z,-0.65
2023-01-26T21:47:43.919Z,-0.64
2023-01-26T21:52:58.666Z,-0.63
2023-01-26T21:58:19.896Z,-0.59
2023-01-26T22:03:22.848Z,-0.61
2023-01-26T22:08:25.878Z,-0.57
2023-01-26T22:13:29.508Z,-0.53
2023-01-26T22:18:32.526Z,-0.47
2023-01-26T22:23:38.544Z,-0.44
2023-01-26T22:28:44.381Z,-0.39
2023-01-26T22:33:47.572Z,-0.35
2023-01-26T22:38:51.603Z,-0.34
2023-01-26T22:43:57.725Z,-0.35
2023-01-26T22:49:01.053Z,-0.39
2023-01-26T22:54:05.179Z,-0.42
2023-01-26T22:59:08.539Z,-0.44
2023-01-26T23:04:11.547Z,-0.48
2023-01-26T23:09:14.528Z,-0.52
2023-01-26T23:14:17.469Z,-0.56
2023-01-26T23:19:20.332Z,-0.57
2023-01-26T23:24:24.280Z,-0.56
2023-01-26T23:29:27.306Z,-0.55
2023-01-26T23:34:30.667Z,-0.59
2023-01-26T23:39:33.583Z,-0.57
2023-01-26T23:44:36.328Z,-0.58
2023-01-26T23:49:39.217Z,-0.58
2023-01-26T23:54:42.380Z,-0.59
2023-01-26T23:59:45.293Z,-0.60
